Davella, Kentucky
Current Conditions -  °F | °C
As of 6:35 PM on Saturday 25 Oct 2014 (Local Time) from KSJS Reporting Station
Clear Clear  
Wind Chill: 64°   Ceiling: Unl
Heat Index: 64°   Visibility: 10mi
Dew Point: 52°   Wind: 3mph
Humidity: 65%   Direction: 270°W
Pressure: 29.97"   Gusts: NA
Location:  37.7829°N, 82.6033°W
Report Text: KSJS 252235Z AUTO 27003KT 10SM CLR 18/11 A2997 RMK AO2 T01780112
Loading
Personal Weather Stations






























Interactive Weather Map
Tropical Storm Tracking
New forecast layout! Learn more

10-Day Weather Forecast

Advertisements
Track Severe Weather on mobile